createdAt,value
2022-11-14T00:01:28.971Z,100288.78
2022-11-14T00:04:15.727Z,100282.71
2022-11-14T00:07:02.355Z,100281.94
2022-11-14T00:09:49.031Z,100282.04
2022-11-14T00:12:35.754Z,100281.90
2022-11-14T00:15:22.371Z,100276.98
2022-11-14T00:18:09.597Z,100279.84
2022-11-14T00:20:56.309Z,100283.68
2022-11-14T00:23:43.098Z,100285.20
2022-11-14T00:26:29.953Z,100282.65
2022-11-14T00:29:17.110Z,100274.25
2022-11-14T00:32:03.700Z,100273.20
2022-11-14T00:34:50.497Z,100277.21
2022-11-14T00:37:38.486Z,100274.22
2022-11-14T00:40:24.984Z,100273.10
2022-11-14T00:43:11.475Z,100271.95
2022-11-14T00:45:57.975Z,100272.52
2022-11-14T00:48:45.195Z,100267.80
2022-11-14T00:51:31.625Z,100258.33
2022-11-14T00:54:18.263Z,100258.30
2022-11-14T00:57:04.839Z,100256.02
2022-11-14T00:59:51.509Z,100252.95
2022-11-14T01:02:37.966Z,100251.53
2022-11-14T01:05:25.407Z,100252.69
2022-11-14T01:08:13.965Z,100254.07
2022-11-14T01:11:00.982Z,100252.54
2022-11-14T01:13:48.369Z,100250.88
2022-11-14T01:16:35.953Z,100249.48
2022-11-14T01:19:22.776Z,100247.07
2022-11-14T01:22:09.422Z,100246.23
2022-11-14T01:24:58.407Z,100241.35
2022-11-14T01:27:45.383Z,100245.48
2022-11-14T01:30:33.272Z,100243.48
2022-11-14T01:33:20.318Z,100245.08
2022-11-14T01:36:08.081Z,100246.25
2022-11-14T01:38:54.948Z,100251.69
2022-11-14T01:41:41.921Z,100251.75
2022-11-14T01:44:45.148Z,100249.49
2022-11-14T01:47:33.617Z,100247.77
2022-11-14T01:50:20.616Z,100245.98
2022-11-14T01:53:07.271Z,100243.73
2022-11-14T01:55:57.914Z,100238.45
2022-11-14T01:58:52.128Z,100239.30
2022-11-14T02:01:45.874Z,100239.44
2022-11-14T02:04:37.823Z,100236.96
2022-11-14T02:07:27.486Z,100231.13
2022-11-14T02:10:20.991Z,100227.03
2022-11-14T02:13:08.567Z,100228.21
2022-11-14T02:15:55.036Z,100231.55
2022-11-14T02:18:41.748Z,100234.60
2022-11-14T02:21:28.401Z,100231.66
2022-11-14T02:24:14.992Z,100227.30
2022-11-14T02:27:04.335Z,100229.85
2022-11-14T02:29:50.975Z,100228.67
2022-11-14T02:33:08.701Z,100232.20
2022-11-14T02:35:44.363Z,100232.40
2022-11-14T02:38:31.771Z,100230.65
2022-11-14T02:41:18.988Z,100227.81
2022-11-14T02:44:05.467Z,100221.64
2022-11-14T02:46:52.069Z,100218.15
2022-11-14T02:49:38.629Z,100217.86
2022-11-14T02:52:25.307Z,100214.88
2022-11-14T02:55:11.707Z,100209.79
2022-11-14T02:57:58.523Z,100208.05
2022-11-14T03:01:13.446Z,100210.02
2022-11-14T03:03:52.343Z,100210.77
2022-11-14T03:06:38.915Z,100202.32
2022-11-14T03:09:25.728Z,100201.48
2022-11-14T03:12:16.772Z,100203.84
2022-11-14T03:15:05.603Z,100201.64
2022-11-14T03:17:52.213Z,100196.63
2022-11-14T03:20:39.290Z,100194.31
2022-11-14T03:23:26.789Z,100196.14
2022-11-14T03:26:15.196Z,100196.38
2022-11-14T03:29:01.571Z,100196.33
2022-11-14T03:31:48.522Z,100195.48
2022-11-14T03:34:35.365Z,100194.98
2022-11-14T03:37:22.288Z,100190.96
2022-11-14T03:40:09.380Z,100188.39
2022-11-14T03:42:57.228Z,100187.96
2022-11-14T03:45:44.340Z,100186.37
2022-11-14T03:48:32.217Z,100186.52
2022-11-14T03:51:18.950Z,100185.72
2022-11-14T03:54:05.964Z,100184.52
2022-11-14T03:56:52.422Z,100185.26
2022-11-14T03:59:39.240Z,100180.67
2022-11-14T04:02:25.768Z,100183.66
2022-11-14T04:05:12.376Z,100188.41
2022-11-14T04:07:59.129Z,100187.12
2022-11-14T04:10:49.052Z,100184.36
2022-11-14T04:13:35.709Z,100179.13
2022-11-14T04:16:22.381Z,100173.98
2022-11-14T04:19:09.124Z,100177.71
2022-11-14T04:21:55.866Z,100177.13
2022-11-14T04:24:42.679Z,100172.14
2022-11-14T04:27:29.316Z,100168.66
2022-11-14T04:30:16.060Z,100166.56
2022-11-14T04:33:06.337Z,100164.45
2022-11-14T04:35:53.257Z,100163.78
2022-11-14T04:38:39.881Z,100163.85
2022-11-14T04:41:26.375Z,100163.04
2022-11-14T04:44:13.217Z,100157.91
2022-11-14T04:46:59.718Z,100156.16
2022-11-14T04:49:46.198Z,100151.58
2022-11-14T04:52:32.912Z,100156.30
2022-11-14T04:55:19.380Z,100148.60
2022-11-14T04:58:06.123Z,100152.52
2022-11-14T05:00:53.775Z,100158.59
2022-11-14T05:03:40.783Z,100161.08
2022-11-14T05:06:27.299Z,100162.30
2022-11-14T05:09:14.145Z,100157.77
2022-11-14T05:12:00.867Z,100154.14
2022-11-14T05:14:47.794Z,100157.21
2022-11-14T05:17:34.532Z,100158.92
2022-11-14T05:20:21.003Z,100154.73
2022-11-14T05:23:07.531Z,100151.47
2022-11-14T05:26:00.939Z,100153.50
2022-11-14T05:28:47.750Z,100156.86
2022-11-14T05:31:34.271Z,100153.81
2022-11-14T05:34:20.736Z,100152.71
2022-11-14T05:37:08.536Z,100151.56
2022-11-14T05:39:56.650Z,100155.65
2022-11-14T05:42:42.994Z,100162.58
2022-11-14T05:45:30.988Z,100168.73
2022-11-14T05:48:18.104Z,100167.88
2022-11-14T05:51:06.505Z,100163.67
2022-11-14T05:53:53.339Z,100165.25
2022-11-14T05:56:39.985Z,100158.27
2022-11-14T05:59:27.468Z,100157.30
2022-11-14T06:02:14.391Z,100160.55
2022-11-14T06:05:01.176Z,100159.80
2022-11-14T06:07:48.156Z,100160.91
2022-11-14T06:10:35.651Z,100157.30
2022-11-14T06:13:24.295Z,100157.81
2022-11-14T06:16:14.774Z,100158.25
2022-11-14T06:19:01.358Z,100157.33
2022-11-14T06:21:48.190Z,100155.29
2022-11-14T06:24:35.156Z,100161.05
2022-11-14T06:27:21.995Z,100167.77
2022-11-14T06:30:09.404Z,100170.15
2022-11-14T06:32:59.505Z,100168.47
2022-11-14T06:35:46.198Z,100171.39
2022-11-14T06:38:35.084Z,100173.09
2022-11-14T06:41:23.176Z,100168.80
2022-11-14T06:44:09.889Z,100167.86
2022-11-14T06:46:57.020Z,100166.18
2022-11-14T06:49:43.571Z,100167.73
2022-11-14T06:52:31.294Z,100170.91
2022-11-14T06:55:23.906Z,100168.05
2022-11-14T06:58:12.124Z,100167.06
2022-11-14T07:01:12.980Z,100167.55
2022-11-14T07:04:00.674Z,100168.48
2022-11-14T07:06:47.589Z,100165.02
2022-11-14T07:09:34.463Z,100160.61
2022-11-14T07:12:21.340Z,100157.16
2022-11-14T07:15:08.759Z,100155.04
2022-11-14T07:17:55.181Z,100145.80
2022-11-14T07:20:41.823Z,100146.00
2022-11-14T07:23:30.244Z,100139.80
2022-11-14T07:26:17.376Z,100139.45
2022-11-14T07:29:03.912Z,100141.08
2022-11-14T07:31:50.571Z,100137.05
2022-11-14T07:34:37.081Z,100136.52
2022-11-14T07:37:24.442Z,100133.47
2022-11-14T07:40:11.357Z,100137.03
2022-11-14T07:43:02.195Z,100142.41
2022-11-14T07:45:48.897Z,100141.80
2022-11-14T07:48:35.546Z,100135.48
2022-11-14T07:51:22.300Z,100128.46
2022-11-14T07:54:12.173Z,100131.77
2022-11-14T07:56:58.996Z,100126.73
2022-11-14T07:59:45.703Z,100123.77
2022-11-14T08:02:32.454Z,100118.38
2022-11-14T08:05:19.267Z,100119.23
2022-11-14T08:08:06.107Z,100115.70
2022-11-14T08:10:56.492Z,100113.90
2022-11-14T08:13:42.986Z,100115.41
2022-11-14T08:16:29.675Z,100116.04
2022-11-14T08:19:16.853Z,100115.58
2022-11-14T08:22:03.741Z,100112.23
2022-11-14T08:24:50.382Z,100108.94
2022-11-14T08:27:37.321Z,100108.46
2022-11-14T08:30:24.014Z,100108.13
2022-11-14T08:33:10.625Z,100110.77
2022-11-14T08:36:04.596Z,100108.48
2022-11-14T08:38:51.773Z,100106.98
2022-11-14T08:41:39.208Z,100097.73
2022-11-14T08:44:25.852Z,100098.09
2022-11-14T08:47:12.673Z,100094.55
2022-11-14T08:49:59.218Z,100097.58
2022-11-14T08:52:54.484Z,100099.98
2022-11-14T08:55:48.361Z,100097.25
2022-11-14T08:58:35.444Z,100095.92
2022-11-14T09:01:22.332Z,100097.35
2022-11-14T09:04:09.295Z,100100.59
2022-11-14T09:06:56.059Z,100094.95
2022-11-14T09:09:43.203Z,100090.53
2022-11-14T09:12:30.320Z,100086.61
2022-11-14T09:15:17.127Z,100084.55
2022-11-14T09:18:03.983Z,100079.48
2022-11-14T09:20:50.786Z,100074.85
2022-11-14T09:23:37.380Z,100073.10
2022-11-14T09:26:23.899Z,100076.64
2022-11-14T09:29:10.438Z,100081.39
2022-11-14T09:31:57.223Z,100081.79
2022-11-14T09:34:45.611Z,100077.70
2022-11-14T09:37:32.669Z,100078.23
2022-11-14T09:40:19.379Z,100074.73
2022-11-14T09:43:34.960Z,100072.48
2022-11-14T09:46:46.891Z,100067.94
2022-11-14T09:49:44.992Z,100063.83
2022-11-14T09:52:46.246Z,100059.35
2022-11-14T09:55:37.155Z,100056.72
2022-11-14T09:58:24.022Z,100054.42
2022-11-14T10:01:28.755Z,100047.86
2022-11-14T10:04:50.258Z,100045.32
2022-11-14T10:07:39.479Z,100045.36
2022-11-14T10:11:01.192Z,100043.63
2022-11-14T10:14:09.475Z,100041.20
2022-11-14T10:17:21.700Z,100035.65
2022-11-14T10:20:20.413Z,100032.18
2022-11-14T10:23:23.616Z,100031.40
2022-11-14T10:26:27.271Z,100031.79
2022-11-14T10:29:32.404Z,100026.09
2022-11-14T10:32:33.898Z,100028.20
2022-11-14T10:35:25.325Z,100023.05
2022-11-14T10:38:24.229Z,100020.81
2022-11-14T10:41:19.231Z,100017.08
2022-11-14T10:44:21.107Z,100007.15
2022-11-14T10:47:14.611Z,100004.26
2022-11-14T10:50:14.580Z,100004.83
2022-11-14T10:53:07.126Z,100006.48
2022-11-14T10:56:04.313Z,100002.45
2022-11-14T10:58:51.567Z,99996.33
2022-11-14T11:01:43.837Z,99992.75
2022-11-14T11:04:33.250Z,99991.42
2022-11-14T11:07:46.608Z,99987.00
2022-11-14T11:10:54.061Z,99980.77
2022-11-14T11:13:51.771Z,99975.40
2022-11-14T11:16:38.527Z,99972.36
2022-11-14T11:19:27.799Z,99972.45
2022-11-14T11:22:36.964Z,99969.13
2022-11-14T11:25:28.345Z,99972.72
2022-11-14T11:28:16.424Z,99973.85
2022-11-14T11:31:06.782Z,99970.27
2022-11-14T11:33:53.857Z,99972.52
2022-11-14T11:36:47.243Z,99966.52
2022-11-14T11:39:43.163Z,99962.59
2022-11-14T11:43:36.871Z,99961.85
2022-11-14T11:46:05.055Z,99957.15
2022-11-14T11:49:00.216Z,99956.89
2022-11-14T11:51:50.135Z,99953.76
2022-11-14T11:54:50.750Z,99947.73
2022-11-14T11:57:47.013Z,99941.11
2022-11-14T12:00:33.563Z,99941.26
2022-11-14T12:03:20.743Z,99941.89
2022-11-14T12:06:17.047Z,99941.37
2022-11-14T12:09:18.204Z,99936.70
2022-11-14T12:12:31.467Z,99933.81
2022-11-14T12:15:40.683Z,99931.66
2022-11-14T12:19:06.643Z,99931.47
2022-11-14T12:22:08.670Z,99928.77
2022-11-14T12:25:13.758Z,99927.23
2022-11-14T12:28:18.752Z,99925.40
2022-11-14T12:31:10.587Z,99920.54
2022-11-14T12:34:37.921Z,99919.20
2022-11-14T12:37:34.463Z,99919.02
2022-11-14T12:40:24.487Z,99919.05
2022-11-14T12:43:36.768Z,99913.54
2022-11-14T12:46:24.454Z,99910.84
2022-11-14T12:49:36.194Z,99909.98
2022-11-14T12:52:43.857Z,99909.01
2022-11-14T12:55:30.271Z,99901.66
2022-11-14T12:58:22.704Z,99893.35
2022-11-14T13:01:15.105Z,99893.66
2022-11-14T13:04:17.450Z,99896.33
2022-11-14T13:07:04.634Z,99897.05
2022-11-14T13:10:09.875Z,99898.25
2022-11-14T13:13:22.001Z,99894.79
2022-11-14T13:16:43.729Z,99890.27
2022-11-14T13:19:49.027Z,99886.23
2022-11-14T13:22:39.654Z,99882.09
2022-11-14T13:25:26.749Z,99880.30
2022-11-14T13:28:52.645Z,99885.19
2022-11-14T13:31:49.652Z,99882.14
2022-11-14T13:34:42.256Z,99881.61
2022-11-14T13:37:52.285Z,99877.16
2022-11-14T13:41:02.265Z,99869.62
2022-11-14T13:44:04.323Z,99868.95
2022-11-14T13:47:18.642Z,99863.94
2022-11-14T13:50:20.216Z,99862.27
2022-11-14T13:53:17.272Z,99861.95
2022-11-14T13:56:04.622Z,99858.39
2022-11-14T13:59:17.425Z,99860.41
2022-11-14T14:02:41.459Z,99855.98
2022-11-14T14:05:46.986Z,99859.89
2022-11-14T14:08:57.100Z,99851.48
2022-11-14T14:12:17.690Z,99847.84
2022-11-14T14:15:07.000Z,99845.80
2022-11-14T14:18:21.031Z,99840.52
2022-11-14T14:21:22.536Z,99835.06
2022-11-14T14:24:27.020Z,99838.88
2022-11-14T14:27:28.075Z,99838.84
2022-11-14T14:30:17.284Z,99838.05
2022-11-14T14:33:15.221Z,99833.70
2022-11-14T14:36:01.776Z,99833.90
2022-11-14T14:38:48.649Z,99831.89
2022-11-14T14:41:36.527Z,99822.67
2022-11-14T14:44:26.997Z,99816.55
2022-11-14T14:47:35.095Z,99812.33
2022-11-14T14:50:25.042Z,99811.59
2022-11-14T14:53:27.861Z,99810.80
2022-11-14T14:56:20.560Z,99808.65
2022-11-14T14:59:18.484Z,99805.94
2022-11-14T15:02:14.137Z,99802.58
2022-11-14T15:05:01.766Z,99803.61
2022-11-14T15:07:50.111Z,99798.42
2022-11-14T15:10:37.307Z,99796.70
2022-11-14T15:13:25.208Z,99797.64
2022-11-14T15:16:12.377Z,99800.34
2022-11-14T15:19:00.653Z,99802.57
2022-11-14T15:22:05.127Z,99801.63
2022-11-14T15:25:20.266Z,99799.22
2022-11-14T15:28:16.107Z,99796.48
2022-11-14T15:31:04.601Z,99793.04
2022-11-14T15:34:02.513Z,99792.36
2022-11-14T15:37:10.506Z,99794.77
2022-11-14T15:40:16.709Z,99796.33
2022-11-14T15:43:40.956Z,99795.22
2022-11-14T15:46:33.367Z,99794.89
2022-11-14T15:49:27.414Z,99792.11
2022-11-14T15:52:40.048Z,99792.40
2022-11-14T15:55:27.896Z,99794.00
2022-11-14T15:58:27.712Z,99795.60
2022-11-14T16:01:26.060Z,99794.11
2022-11-14T16:04:20.047Z,99792.83
2022-11-14T16:07:06.756Z,99789.80
2022-11-14T16:09:53.928Z,99789.10
2022-11-14T16:12:40.772Z,99788.45
2022-11-14T16:15:27.425Z,99788.17
2022-11-14T16:18:15.682Z,99788.13
2022-11-14T16:21:02.511Z,99786.86
2022-11-14T16:23:50.231Z,99788.89
2022-11-14T16:26:38.230Z,99788.08
2022-11-14T16:29:25.455Z,99783.52
2022-11-14T16:32:12.304Z,99780.77
2022-11-14T16:34:59.000Z,99776.79
2022-11-14T16:37:46.429Z,99777.29
2022-11-14T16:40:33.112Z,99781.21
2022-11-14T16:43:21.449Z,99778.73
2022-11-14T16:46:10.040Z,99780.12
2022-11-14T16:48:57.464Z,99777.59
2022-11-14T16:51:49.594Z,99775.86
2022-11-14T16:54:37.317Z,99776.52
2022-11-14T16:57:24.343Z,99781.21
2022-11-14T17:00:12.790Z,99779.84
2022-11-14T17:02:59.504Z,99776.36
2022-11-14T17:05:48.884Z,99774.58
2022-11-14T17:08:36.418Z,99773.71
2022-11-14T17:11:24.172Z,99772.63
2022-11-14T17:14:11.911Z,99772.38
2022-11-14T17:17:04.435Z,99771.57
2022-11-14T17:19:51.535Z,99774.97
2022-11-14T17:22:38.102Z,99773.30
2022-11-14T17:25:24.945Z,99770.36
2022-11-14T17:28:12.583Z,99770.21
2022-11-14T17:30:59.141Z,99768.46
2022-11-14T17:33:54.283Z,99767.66
2022-11-14T17:36:40.894Z,99767.15
2022-11-14T17:39:27.821Z,99762.73
2022-11-14T17:42:14.297Z,99762.39
2022-11-14T17:45:01.859Z,99764.52
2022-11-14T17:47:48.393Z,99761.96
2022-11-14T17:50:38.823Z,99757.73
2022-11-14T17:53:25.604Z,99760.73
2022-11-14T17:56:17.252Z,99757.92
2022-11-14T17:59:03.974Z,99757.86
2022-11-14T18:01:50.773Z,99754.67
2022-11-14T18:04:37.620Z,99749.54
2022-11-14T18:07:24.158Z,99748.27
2022-11-14T18:10:11.091Z,99749.25
2022-11-14T18:12:57.633Z,99750.55
2022-11-14T18:15:44.469Z,99749.42
2022-11-14T18:18:35.500Z,99745.88
2022-11-14T18:21:25.654Z,99740.56
2022-11-14T18:24:14.085Z,99738.62
2022-11-14T18:27:01.166Z,99735.20
2022-11-14T18:29:48.577Z,99733.27
2022-11-14T18:32:35.204Z,99733.30
2022-11-14T18:35:21.739Z,99729.54
2022-11-14T18:38:08.546Z,99727.03
2022-11-14T18:40:57.541Z,99722.22
2022-11-14T18:43:45.819Z,99718.30
2022-11-14T18:46:37.074Z,99714.95
2022-11-14T18:49:25.253Z,99708.07
2022-11-14T18:52:17.198Z,99706.02
2022-11-14T18:55:05.264Z,99710.17
2022-11-14T18:57:52.344Z,99709.42
2022-11-14T19:00:39.381Z,99708.27
2022-11-14T19:03:26.314Z,99707.00
2022-11-14T19:06:13.450Z,99702.14
2022-11-14T19:09:05.558Z,99702.88
2022-11-14T19:12:13.349Z,99705.05
2022-11-14T19:15:02.168Z,99705.84
2022-11-14T19:17:49.019Z,99708.42
2022-11-14T19:20:35.694Z,99707.90
2022-11-14T19:23:22.162Z,99706.45
2022-11-14T19:26:09.686Z,99705.50
2022-11-14T19:28:57.355Z,99702.55
2022-11-14T19:31:43.959Z,99702.09
2022-11-14T19:34:30.892Z,99701.52
2022-11-14T19:37:17.614Z,99703.32
2022-11-14T19:40:04.537Z,99702.16
2022-11-14T19:42:55.954Z,99703.14
2022-11-14T19:45:43.852Z,99701.42
2022-11-14T19:48:31.517Z,99699.84
2022-11-14T19:51:18.463Z,99701.91
2022-11-14T19:54:05.562Z,99699.38
2022-11-14T19:56:53.000Z,99695.66
2022-11-14T19:59:39.817Z,99696.15
2022-11-14T20:02:28.595Z,99694.88
2022-11-14T20:05:15.912Z,99693.70
2022-11-14T20:08:02.413Z,99691.16
2022-11-14T20:11:15.577Z,99692.27
2022-11-14T20:14:02.918Z,99684.81
2022-11-14T20:16:49.787Z,99681.92
2022-11-14T20:19:36.601Z,99683.13
2022-11-14T20:22:23.673Z,99680.13
2022-11-14T20:25:15.590Z,99676.43
2022-11-14T20:28:02.700Z,99671.73
2022-11-14T20:30:49.250Z,99662.05
2022-11-14T20:33:38.155Z,99655.08
2022-11-14T20:36:32.013Z,99649.89
2022-11-14T20:39:26.103Z,99649.20
2022-11-14T20:42:12.737Z,99647.23
2022-11-14T20:44:59.373Z,99645.02
2022-11-14T20:47:46.927Z,99650.67
2022-11-14T20:50:33.637Z,99647.48
2022-11-14T20:53:20.311Z,99638.27
2022-11-14T20:56:07.673Z,99632.16
2022-11-14T20:58:55.426Z,99632.84
2022-11-14T21:01:44.162Z,99630.96
2022-11-14T21:04:30.858Z,99628.61
2022-11-14T21:07:17.561Z,99627.95
2022-11-14T21:10:23.264Z,99625.30
2022-11-14T21:13:28.828Z,99623.05
2022-11-14T21:16:19.164Z,99620.19
2022-11-14T21:19:07.370Z,99621.94
2022-11-14T21:21:54.247Z,99616.44
2022-11-14T21:24:41.011Z,99615.75
2022-11-14T21:27:27.389Z,99611.77
2022-11-14T21:30:14.253Z,99609.34
2022-11-14T21:33:00.850Z,99605.95
2022-11-14T21:35:47.527Z,99606.22
2022-11-14T21:38:34.381Z,99604.89
2022-11-14T21:41:22.917Z,99604.20
2022-11-14T21:44:15.797Z,99601.59
2022-11-14T21:47:02.541Z,99597.73
2022-11-14T21:49:50.704Z,99593.98
2022-11-14T21:52:37.616Z,99586.02
2022-11-14T21:55:24.060Z,99586.13
2022-11-14T21:58:12.767Z,99584.21
2022-11-14T22:01:09.276Z,99584.95
2022-11-14T22:04:14.063Z,99583.68
2022-11-14T22:07:08.444Z,99576.27
2022-11-14T22:09:55.169Z,99575.48
2022-11-14T22:12:41.932Z,99573.88
2022-11-14T22:15:28.768Z,99571.79
2022-11-14T22:18:15.711Z,99572.56
2022-11-14T22:21:02.432Z,99575.43
2022-11-14T22:23:49.226Z,99574.52
2022-11-14T22:26:39.989Z,99577.88
2022-11-14T22:29:27.124Z,99575.10
2022-11-14T22:32:13.650Z,99574.97
2022-11-14T22:35:00.394Z,99568.31
2022-11-14T22:37:47.220Z,99564.70
2022-11-14T22:40:34.099Z,99562.13
2022-11-14T22:43:22.382Z,99561.60
2022-11-14T22:46:13.851Z,99557.25
2022-11-14T22:49:03.768Z,99561.20
2022-11-14T22:51:50.161Z,99558.52
2022-11-14T22:54:36.702Z,99560.27
2022-11-14T22:57:23.418Z,99560.52
2022-11-14T23:00:10.722Z,99559.92
2022-11-14T23:02:57.433Z,99555.49
2022-11-14T23:05:44.510Z,99556.04
2022-11-14T23:08:31.368Z,99554.92
2022-11-14T23:11:23.880Z,99554.52
2022-11-14T23:14:13.472Z,99551.32
2022-11-14T23:17:00.329Z,99544.86
2022-11-14T23:19:47.074Z,99541.64
2022-11-14T23:22:33.712Z,99541.01
2022-11-14T23:25:20.653Z,99537.31
2022-11-14T23:28:07.589Z,99536.35
2022-11-14T23:30:56.059Z,99536.83
2022-11-14T23:33:42.945Z,99535.23
2022-11-14T23:36:29.513Z,99531.52
2022-11-14T23:39:16.195Z,99532.61
2022-11-14T23:42:02.932Z,99526.73
2022-11-14T23:44:49.588Z,99525.95
2022-11-14T23:47:36.436Z,99522.52
2022-11-14T23:50:22.950Z,99522.77
2022-11-14T23:53:11.084Z,99519.80
2022-11-14T23:56:00.355Z,99515.83
2022-11-14T23:58:47.255Z,99513.28
